Time;durP1;ratioP1;P1;durP2;ratioP2;P2;SDS_P1;SDS_P2;PMS_P1;PMS_P2;Temp;Humidity;BMP_temperature;BMP_pressure;BME280_temperature;BME280_humidity;BME280_pressure;Samples;Min_cycle;Max_cycle;Signal;HPM_P1;HPM_P2
2023/01/01 00:02:02;;;;;;;34.37;19.77;;;;;;;;;;5076739;28;20461;-81
2023/01/01 00:04:27;;;;;;;23.58;11.43;;;;;;;;;;5076776;28;20701;-82
2023/01/01 00:06:53;;;;;;;17.23;9.68;;;;;;;;;;5077242;28;20024;-82
2023/01/01 00:12:02;;;;;;;;;;;;;;;;;;5096154;28;20055;-81
2023/01/01 00:14:27;;;;;;;10.07;5.15;;;;;;;;;;5096059;28;19916;-82
2023/01/01 00:16:54;;;;;;;19.80;10.75;;;;;;;;;;5067357;28;20090;-81
2023/01/01 00:19:20;;;;;;;16.30;10.15;;;;;;;;;;5058423;28;20028;-81
2023/01/01 00:21:45;;;;;;;18.35;10.95;;;;;;;;;;5057041;28;20028;-80
2023/01/01 00:24:10;;;;;;;14.27;8.95;;;;;;;;;;5075604;28;20092;-81
2023/01/01 00:26:36;;;;;;;12.98;6.95;;;;;;;;;;5076043;28;20059;-81
2023/01/01 00:29:02;;;;;;;11.63;6.10;;;;;;;;;;5077320;28;20069;-81
2023/01/01 00:31:28;;;;;;;9.85;6.25;;;;;;;;;;5058244;28;20024;-82
2023/01/01 00:33:54;;;;;;;9.32;4.43;;;;;;;;;;5057962;28;20043;-83
2023/01/01 00:36:21;;;;;;;9.20;5.65;;;;;;;;;;5057809;28;20020;-80
2023/01/01 00:38:47;;;;;;;10.38;6.45;;;;;;;;;;5076231;28;20028;-82
2023/01/01 00:41:13;;;;;;;6.32;3.40;;;;;;;;;;5075602;28;20025;-81
2023/01/01 00:43:39;;;;;;;4.75;3.10;;;;;;;;;;5076496;28;20448;-81
2023/01/01 00:46:06;;;;;;;6.85;4.13;;;;;;;;;;5057712;28;20036;-81
2023/01/01 00:48:31;;;;;;;4.65;2.97;;;;;;;;;;5076176;28;20078;-82
2023/01/01 00:50:56;;;;;;;6.72;3.22;;;;;;;;;;5075690;28;20032;-82
2023/01/01 00:53:22;;;;;;;7.05;2.70;;;;;;;;;;5076219;28;20098;-81
2023/01/01 00:55:48;;;;;;;5.47;3.53;;;;;;;;;;5075961;28;20024;-83
2023/01/01 00:58:14;;;;;;;7.72;2.95;;;;;;;;;;5057673;28;20028;-82
2023/01/01 01:00:40;;;;;;;5.20;2.72;;;;;;;;;;5075293;28;20028;-82
2023/01/01 01:03:05;;;;;;;9.23;5.75;;;;;;;;;;5075234;28;20474;-82
2023/01/01 01:05:31;;;;;;;6.20;4.20;;;;;;;;;;5057579;28;20028;-81
2023/01/01 01:07:57;;;;;;;5.68;3.92;;;;;;;;;;5058092;28;20494;-81
2023/01/01 01:10:24;;;;;;;8.60;3.63;;;;;;;;;;5075941;28;20044;-81
2023/01/01 01:12:50;;;;;;;6.68;3.47;;;;;;;;;;5057479;28;20062;-83
2023/01/01 01:15:15;;;;;;;4.65;2.90;;;;;;;;;;5075350;28;20432;-81
2023/01/01 01:17:40;;;;;;;5.25;3.13;;;;;;;;;;5076067;28;20055;-82
2023/01/01 01:20:07;;;;;;;6.57;3.63;;;;;;;;;;5075182;28;20027;-81
2023/01/01 01:22:33;;;;;;;6.55;3.47;;;;;;;;;;5075038;28;20256;-81
2023/01/01 01:24:58;;;;;;;13.27;3.30;;;;;;;;;;5075369;28;20096;-82
2023/01/01 01:27:24;;;;;;;6.35;4.07;;;;;;;;;;5057141;28;20021;-82
2023/01/01 01:29:49;;;;;;;7.45;3.40;;;;;;;;;;5075506;28;20039;-82
2023/01/01 01:32:15;;;;;;;7.75;4.65;;;;;;;;;;5076660;28;20046;-80
2023/01/01 01:34:40;;;;;;;4.80;2.70;;;;;;;;;;5076884;28;20032;-83
2023/01/01 01:37:05;;;;;;;5.40;2.93;;;;;;;;;;5058985;28;20048;-82
2023/01/01 01:39:30;;;;;;;6.13;3.10;;;;;;;;;;5059921;28;20264;-81
2023/01/01 01:41:56;;;;;;;6.40;3.63;;;;;;;;;;5077782;28;20063;-83
2023/01/01 01:44:47;;;;;;;6.10;3.07;;;;;;;;;;5077662;28;20059;-83
2023/01/01 01:47:34;;;;;;;4.72;2.50;;;;;;;;;;5059297;28;20645;-83
2023/01/01 01:50:10;;;;;;;5.90;3.20;;;;;;;;;;5077232;28;20028;-83
2023/01/01 01:52:39;;;;;;;7.07;3.85;;;;;;;;;;5057141;28;20036;-81
2023/01/01 01:55:07;;;;;;;5.28;3.30;;;;;;;;;;5078060;28;20047;-83
2023/01/01 01:57:33;;;;;;;5.43;3.15;;;;;;;;;;5078294;28;20114;-81
2023/01/01 02:00:00;;;;;;;6.40;3.55;;;;;;;;;;5078858;28;20043;-82
2023/01/01 02:02:34;;;;;;;8.13;3.53;;;;;;;;;;5078222;28;20025;-81
2023/01/01 02:04:59;;;;;;;;;;;;;;;;;;5078827;28;20028;-80
2023/01/01 02:07:27;;;;;;;4.15;2.60;;;;;;;;;;5077745;28;20411;-82
2023/01/01 02:09:53;;;;;;;3.28;2.08;;;;;;;;;;5060184;28;20032;-82
2023/01/01 02:12:18;;;;;;;4.55;2.10;;;;;;;;;;5060622;28;20047;-81
2023/01/01 02:14:43;;;;;;;4.28;2.35;;;;;;;;;;5060754;28;20020;-82
2023/01/01 02:17:29;;;;;;;4.55;2.97;;;;;;;;;;5079199;28;20046;-81
2023/01/01 02:20:07;;;;;;;10.15;2.80;;;;;;;;;;5060818;28;20474;-82
2023/01/01 02:22:35;;;;;;;3.53;1.80;;;;;;;;;;5079490;28;20389;-83
2023/01/01 02:25:26;;;;;;;6.38;1.67;;;;;;;;;;5079077;28;20016;-82
2023/01/01 02:28:11;;;;;;;3.13;1.80;;;;;;;;;;5060560;28;20397;-81
2023/01/01 02:30:40;;;;;;;4.90;1.65;;;;;;;;;;5060688;28;20448;-82
2023/01/01 02:33:10;;;;;;;3.42;1.95;;;;;;;;;;5078734;28;20059;-83
2023/01/01 02:35:41;;;;;;;2.70;1.70;;;;;;;;;;5060535;28;20035;-82
2023/01/01 02:38:16;;;;;;;3.35;1.65;;;;;;;;;;5079222;28;20073;-81
2023/01/01 02:40:46;;;;;;;2.85;1.60;;;;;;;;;;5079172;28;20053;-82
2023/01/01 02:43:11;;;;;;;3.60;1.50;;;;;;;;;;5079795;28;20082;-81
2023/01/01 02:45:37;;;;;;;4.53;1.83;;;;;;;;;;5079172;28;20095;-82
2023/01/01 02:48:04;;;;;;;2.72;1.55;;;;;;;;;;5061517;28;20023;-82
2023/01/01 02:50:30;;;;;;;4.60;1.75;;;;;;;;;;5059692;28;20025;-82
2023/01/01 02:53:13;;;;;;;6.57;1.85;;;;;;;;;;5060573;28;20030;-82
2023/01/01 02:56:06;;;;;;;4.13;1.85;;;;;;;;;;5079041;28;20029;-83
2023/01/01 03:01:33;;;;;;;5.50;2.30;;;;;;;;;;5077700;28;20023;-82
2023/01/01 03:04:16;;;;;;;5.80;2.10;;;;;;;;;;5076593;28;20059;-81
2023/01/01 03:07:20;;;;;;;4.80;2.53;;;;;;;;;;5077596;28;20059;-82
2023/01/01 03:09:56;;;;;;;4.73;1.60;;;;;;;;;;5074477;28;20079;-81
2023/01/01 03:12:42;;;;;;;8.07;2.42;;;;;;;;;;5059065;28;20020;-81
2023/01/01 03:15:22;;;;;;;6.03;2.00;;;;;;;;;;5077720;28;20134;-81
2023/01/01 03:18:28;;;;;;;4.53;2.00;;;;;;;;;;5077283;28;20071;-81
2023/01/01 03:20:57;;;;;;;5.97;2.28;;;;;;;;;;5059034;28;20091;-80
2023/01/01 03:23:28;;;;;;;3.47;1.60;;;;;;;;;;5058984;28;20496;-81
2023/01/01 03:25:58;;;;;;;7.03;2.22;;;;;;;;;;5059356;28;20370;-81
2023/01/01 03:28:34;;;;;;;5.47;1.88;;;;;;;;;;5076267;28;20111;-82
2023/01/01 03:31:00;;;;;;;4.15;1.75;;;;;;;;;;5075917;28;20025;-81
2023/01/01 03:33:33;;;;;;;4.88;1.77;;;;;;;;;;5057801;28;20025;-82
2023/01/01 03:36:23;;;;;;;5.07;1.98;;;;;;;;;;5075848;28;20409;-83
2023/01/01 03:39:01;;;;;;;4.10;1.83;;;;;;;;;;5076311;28;20028;-82
2023/01/01 03:41:34;;;;;;;7.05;2.40;;;;;;;;;;5076222;28;20097;-81
2023/01/01 03:44:06;;;;;;;3.95;2.00;;;;;;;;;;5076263;28;20118;-82
2023/01/01 03:46:34;;;;;;;6.53;1.77;;;;;;;;;;5076004;28;20041;-81
2023/01/01 03:49:01;;;;;;;3.40;1.60;;;;;;;;;;5076008;28;20024;-81
2023/01/01 03:51:43;;;;;;;4.57;1.20;;;;;;;;;;5075950;28;20025;-81
2023/01/01 03:54:40;;;;;;;4.85;1.42;;;;;;;;;;5076029;28;20060;-82
2023/01/01 03:57:25;;;;;;;4.60;1.55;;;;;;;;;;5034705;28;20036;-82
2023/01/01 04:00:10;;;;;;;4.13;1.90;;;;;;;;;;5057573;28;20428;-81
2023/01/01 04:02:53;;;;;;;6.80;1.90;;;;;;;;;;5076023;28;20456;-81
2023/01/01 04:05:19;;;;;;;10.07;1.58;;;;;;;;;;5057405;28;20025;-82
2023/01/01 04:07:46;;;;;;;4.60;1.50;;;;;;;;;;5075397;28;20046;-81
2023/01/01 04:10:17;;;;;;;5.55;1.40;;;;;;;;;;5057487;28;20105;-81
2023/01/01 04:12:48;;;;;;;7.28;1.50;;;;;;;;;;5075900;28;20028;-82
2023/01/01 04:15:18;;;;;;;6.00;1.50;;;;;;;;;;5075666;28;20031;-82
2023/01/01 04:17:44;;;;;;;8.90;1.95;;;;;;;;;;5056437;28;20020;-82
2023/01/01 04:20:10;;;;;;;3.75;1.50;;;;;;;;;;5074974;28;20027;-82
2023/01/01 04:22:35;;;;;;;8.77;1.50;;;;;;;;;;5074720;28;20039;-83
2023/01/01 04:25:01;;;;;;;6.40;1.60;;;;;;;;;;5074976;28;20016;-81
2023/01/01 04:27:26;;;;;;;8.15;1.92;;;;;;;;;;5056812;28;20307;-80
2023/01/01 04:29:51;;;;;;;5.30;1.45;;;;;;;;;;5074864;28;20020;-81
2023/01/01 04:32:17;;;;;;;3.65;1.52;;;;;;;;;;5075054;28;20048;-82
2023/01/01 04:34:42;;;;;;;4.30;1.45;;;;;;;;;;5074919;28;20363;-82
2023/01/01 04:37:07;;;;;;;5.07;1.50;;;;;;;;;;5075531;28;20032;-81
2023/01/01 04:39:32;;;;;;;4.85;1.50;;;;;;;;;;5074700;28;20442;-83
2023/01/01 04:41:58;;;;;;;10.27;1.63;;;;;;;;;;5056588;28;20028;-81
2023/01/01 04:44:23;;;;;;;5.78;1.63;;;;;;;;;;5074314;28;20253;-82
2023/01/01 04:46:48;;;;;;;6.20;1.60;;;;;;;;;;5056946;28;20115;-81
2023/01/01 04:49:13;;;;;;;10.93;1.80;;;;;;;;;;5074999;28;20290;-80
2023/01/01 04:51:39;;;;;;;5.80;1.48;;;;;;;;;;5057998;28;20340;-81
2023/01/01 04:54:04;;;;;;;5.07;1.50;;;;;;;;;;5056911;28;20162;-81
2023/01/01 04:56:29;;;;;;;7.97;2.00;;;;;;;;;;5075999;28;20253;-82
2023/01/01 04:58:56;;;;;;;9.55;1.52;;;;;;;;;;5058141;28;20012;-81
2023/01/01 05:01:28;;;;;;;6.72;1.67;;;;;;;;;;5058562;28;20020;-81
2023/01/01 05:03:54;;;;;;;7.47;1.50;;;;;;;;;;5059192;28;20111;-83
2023/01/01 05:06:20;;;;;;;8.43;1.70;;;;;;;;;;5078613;28;20067;-83
2023/01/01 05:08:48;;;;;;;7.07;1.75;;;;;;;;;;5059028;28;20025;-83
2023/01/01 05:11:20;;;;;;;7.55;1.90;;;;;;;;;;5076271;28;20115;-82
2023/01/01 05:13:47;;;;;;;6.68;1.58;;;;;;;;;;5076934;28;20025;-82
2023/01/01 05:16:15;;;;;;;9.75;1.70;;;;;;;;;;5057904;28;20107;-81
2023/01/01 05:18:41;;;;;;;6.95;1.65;;;;;;;;;;5057664;28;20024;-82
2023/01/01 05:21:09;;;;;;;8.65;1.50;;;;;;;;;;5075802;28;20032;-82
2023/01/01 05:23:35;;;;;;;6.88;2.08;;;;;;;;;;5075754;28;20021;-81
2023/01/01 05:26:07;;;;;;;6.22;1.85;;;;;;;;;;5075918;28;20020;-80
2023/01/01 05:28:32;;;;;;;4.70;1.80;;;;;;;;;;5077982;28;20143;-83
2023/01/01 05:30:57;;;;;;;5.87;1.90;;;;;;;;;;5079454;28;20059;-81
2023/01/01 05:33:23;;;;;;;4.73;1.47;;;;;;;;;;5078980;28;20276;-81
2023/01/01 05:35:53;;;;;;;4.07;1.60;;;;;;;;;;5078434;28;20262;-82
2023/01/01 05:38:18;;;;;;;5.85;1.65;;;;;;;;;;5077822;28;20264;-81
2023/01/01 05:40:43;;;;;;;6.22;1.55;;;;;;;;;;5077546;28;20020;-81
2023/01/01 05:43:09;;;;;;;7.07;1.60;;;;;;;;;;5060762;28;20103;-82
2023/01/01 05:45:34;;;;;;;7.03;1.80;;;;;;;;;;5078515;28;20254;-82
2023/01/01 05:47:59;;;;;;;5.30;1.67;;;;;;;;;;5078495;28;20281;-82
2023/01/01 05:50:24;;;;;;;3.17;1.50;;;;;;;;;;5078717;28;20249;-82
2023/01/01 05:52:49;;;;;;;4.60;1.67;;;;;;;;;;5079499;28;20264;-81
2023/01/01 05:55:15;;;;;;;3.47;1.50;;;;;;;;;;5078974;28;20257;-81
2023/01/01 05:57:40;;;;;;;9.38;1.63;;;;;;;;;;5079563;28;20260;-81
2023/01/01 06:00:06;;;;;;;6.72;1.58;;;;;;;;;;5078693;28;20020;-81
2023/01/01 06:02:31;;;;;;;8.77;1.60;;;;;;;;;;5078460;28;20028;-81
2023/01/01 06:04:56;;;;;;;4.13;1.53;;;;;;;;;;5078527;28;20442;-81
2023/01/01 06:07:22;;;;;;;9.00;1.63;;;;;;;;;;5061125;28;20733;-82
2023/01/01 06:09:47;;;;;;;6.63;1.80;;;;;;;;;;5078748;28;20028;-82
2023/01/01 06:12:12;;;;;;;5.67;1.70;;;;;;;;;;5078455;28;20257;-81
2023/01/01 06:14:37;;;;;;;4.85;1.63;;;;;;;;;;5078845;28;20324;-81
2023/01/01 06:17:02;;;;;;;4.73;1.53;;;;;;;;;;5079107;28;20024;-81
2023/01/01 06:19:28;;;;;;;4.60;2.10;;;;;;;;;;5060457;28;20261;-83
2023/01/01 06:21:53;;;;;;;4.63;1.83;;;;;;;;;;5060719;28;20028;-80
2023/01/01 06:24:18;;;;;;;3.40;1.57;;;;;;;;;;5060635;28;20272;-81
2023/01/01 06:26:43;;;;;;;3.90;1.70;;;;;;;;;;5078063;28;20258;-82
2023/01/01 06:29:09;;;;;;;2.90;1.53;;;;;;;;;;5060703;28;20032;-80
2023/01/01 06:31:34;;;;;;;4.47;1.77;;;;;;;;;;5060287;28;20249;-82
2023/01/01 06:33:59;;;;;;;5.32;1.75;;;;;;;;;;5077672;28;20268;-83
2023/01/01 06:36:26;;;;;;;3.58;1.50;;;;;;;;;;5077736;28;20048;-83
2023/01/01 06:38:54;;;;;;;5.90;1.92;;;;;;;;;;5059392;28;20103;-83
2023/01/01 06:41:21;;;;;;;3.58;1.70;;;;;;;;;;5059631;28;20029;-83
2023/01/01 06:43:47;;;;;;;3.63;1.73;;;;;;;;;;5060026;28;20020;-81
2023/01/01 06:46:16;;;;;;;5.60;2.05;;;;;;;;;;5077806;28;20039;-80
2023/01/01 06:48:44;;;;;;;5.15;1.92;;;;;;;;;;5078013;28;20103;-81
2023/01/01 06:51:15;;;;;;;3.28;1.92;;;;;;;;;;5077863;28;20024;-83
2023/01/01 06:53:41;;;;;;;3.47;1.63;;;;;;;;;;5060070;28;20397;-82
2023/01/01 06:56:06;;;;;;;5.60;2.00;;;;;;;;;;5077644;28;20048;-82
2023/01/01 06:58:31;;;;;;;4.63;2.08;;;;;;;;;;5077669;28;20436;-80
2023/01/01 07:01:14;;;;;;;4.65;1.70;;;;;;;;;;5059859;28;20043;-81
2023/01/01 07:03:40;;;;;;;4.15;1.83;;;;;;;;;;5059818;28;20031;-82
2023/01/01 07:06:07;;;;;;;5.72;1.75;;;;;;;;;;5058983;28;20036;-81
2023/01/01 07:08:33;;;;;;;5.68;2.13;;;;;;;;;;5059418;28;20082;-81
2023/01/01 07:10:58;;;;;;;4.18;2.15;;;;;;;;;;5077901;28;20385;-82
2023/01/01 07:13:25;;;;;;;6.95;1.98;;;;;;;;;;5076733;28;20494;-82
2023/01/01 07:15:51;;;;;;;5.30;2.38;;;;;;;;;;5059073;28;20385;-81
2023/01/01 07:18:18;;;;;;;6.82;2.67;;;;;;;;;;5077284;28;20024;-82
2023/01/01 07:20:47;;;;;;;4.65;2.45;;;;;;;;;;5059540;28;20032;-82
2023/01/01 07:23:15;;;;;;;3.70;2.30;;;;;;;;;;5077176;28;20110;-82
2023/01/01 07:25:41;;;;;;;3.50;2.25;;;;;;;;;;5077982;28;20098;-81
2023/01/01 07:28:06;;;;;;;6.40;2.10;;;;;;;;;;5077253;28;20108;-82
2023/01/01 07:30:31;;;;;;;3.70;2.30;;;;;;;;;;5077100;28;20111;-82
2023/01/01 07:32:57;;;;;;;5.63;2.10;;;;;;;;;;5078716;28;20122;-81
2023/01/01 07:35:22;;;;;;;5.53;2.20;;;;;;;;;;5078599;28;20253;-84
2023/01/01 07:37:47;;;;;;;4.97;2.50;;;;;;;;;;5060863;28;20246;-82
2023/01/01 07:40:12;;;;;;;7.40;2.60;;;;;;;;;;5078097;28;20256;-83
2023/01/01 07:42:38;;;;;;;3.88;2.00;;;;;;;;;;5079393;28;20265;-82
2023/01/01 07:45:03;;;;;;;7.30;2.67;;;;;;;;;;5079066;28;20025;-82
2023/01/01 07:47:28;;;;;;;5.03;2.40;;;;;;;;;;5078377;28;20048;-83
2023/01/01 07:49:54;;;;;;;6.27;2.70;;;;;;;;;;5078711;28;20033;-82
2023/01/01 07:52:22;;;;;;;4.30;2.47;;;;;;;;;;5076128;28;20268;-81
2023/01/01 07:54:47;;;;;;;5.25;2.25;;;;;;;;;;5077296;28;20352;-82
2023/01/01 07:57:12;;;;;;;4.73;2.50;;;;;;;;;;5059330;28;20052;-81
2023/01/01 07:59:37;;;;;;;3.77;2.07;;;;;;;;;;5078046;28;20249;-82
2023/01/01 08:02:03;;;;;;;5.10;2.10;;;;;;;;;;5077245;28;20311;-82
2023/01/01 08:04:28;;;;;;;4.35;2.53;;;;;;;;;;5058436;28;20032;-82
2023/01/01 08:06:53;;;;;;;6.57;2.50;;;;;;;;;;5077029;28;20466;-82
2023/01/01 08:09:19;;;;;;;3.42;1.83;;;;;;;;;;5076436;28;20020;-81
2023/01/01 08:11:44;;;;;;;3.58;2.28;;;;;;;;;;5059019;28;20028;-82
2023/01/01 08:14:10;;;;;;;3.70;2.30;;;;;;;;;;5076048;28;20490;-80
2023/01/01 08:16:35;;;;;;;5.60;2.50;;;;;;;;;;5075567;28;20032;-81
2023/01/01 08:19:00;;;;;;;4.10;2.23;;;;;;;;;;5057336;28;20022;-81
2023/01/01 08:21:25;;;;;;;5.25;2.33;;;;;;;;;;5077276;28;20253;-80
2023/01/01 08:23:51;;;;;;;4.40;2.73;;;;;;;;;;5058659;28;20024;-81
2023/01/01 08:26:25;;;;;;;4.85;2.40;;;;;;;;;;5076859;28;20265;-82
2023/01/01 08:28:50;;;;;;;;;;;;;;;;;;5078885;28;20043;-82
2023/01/01 08:31:15;;;;;;;6.23;2.17;;;;;;;;;;5060020;28;19908;-82
2023/01/01 08:33:40;;;;;;;6.07;2.20;;;;;;;;;;5078290;28;20106;-82
2023/01/01 08:36:06;;;;;;;4.63;2.10;;;;;;;;;;5078563;28;20273;-83
2023/01/01 08:38:31;;;;;;;5.07;2.17;;;;;;;;;;5060635;28;20287;-81
2023/01/01 08:40:56;;;;;;;3.73;2.23;;;;;;;;;;5076574;28;20182;-81
2023/01/01 08:43:21;;;;;;;5.23;2.13;;;;;;;;;;5076917;28;20273;-83
2023/01/01 08:45:47;;;;;;;5.50;2.35;;;;;;;;;;5076416;28;20319;-81
2023/01/01 08:48:12;;;;;;;8.07;2.33;;;;;;;;;;5076483;28;20389;-81
2023/01/01 08:50:37;;;;;;;4.23;2.10;;;;;;;;;;5076682;28;20037;-81
2023/01/01 08:53:03;;;;;;;7.53;2.53;;;;;;;;;;5058200;28;20261;-81
2023/01/01 08:55:28;;;;;;;4.70;1.90;;;;;;;;;;5077028;28;20269;-81
2023/01/01 08:57:53;;;;;;;3.42;1.88;;;;;;;;;;5076602;28;20423;-81
2023/01/01 09:00:19;;;;;;;4.38;2.17;;;;;;;;;;5076213;28;20024;-81
2023/01/01 09:02:44;;;;;;;5.00;2.42;;;;;;;;;;5059141;28;20028;-81
2023/01/01 09:05:10;;;;;;;4.32;2.10;;;;;;;;;;5080496;28;20032;-82
2023/01/01 09:07:35;;;;;;;4.68;1.95;;;;;;;;;;5082071;28;20020;-81
2023/01/01 09:10:00;;;;;;;4.50;2.10;;;;;;;;;;5080228;28;20029;-81
2023/01/01 09:12:26;;;;;;;4.03;2.10;;;;;;;;;;5080108;28;20024;-80
2023/01/01 09:14:51;;;;;;;3.25;1.77;;;;;;;;;;5080264;28;20268;-81
2023/01/01 09:17:16;;;;;;;4.73;1.97;;;;;;;;;;5079679;28;20028;-80
2023/01/01 09:19:41;;;;;;;4.72;2.10;;;;;;;;;;5079715;28;20292;-83
2023/01/01 09:22:10;;;;;;;5.33;2.13;;;;;;;;;;5061671;28;20024;-82
2023/01/01 09:24:36;;;;;;;8.13;2.33;;;;;;;;;;5078526;28;20260;-82
2023/01/01 09:27:01;;;;;;;7.13;2.00;;;;;;;;;;5078985;28;20020;-81
2023/01/01 09:29:26;;;;;;;3.58;1.73;;;;;;;;;;5079225;28;20028;-82
2023/01/01 09:31:51;;;;;;;4.32;2.10;;;;;;;;;;5061071;28;20027;-81
2023/01/01 09:34:17;;;;;;;4.20;1.95;;;;;;;;;;5079241;28;20039;-82
2023/01/01 09:36:42;;;;;;;5.68;1.75;;;;;;;;;;5078877;28;20107;-81
2023/01/01 09:39:11;;;;;;;5.80;1.88;;;;;;;;;;5079301;28;20024;-82
2023/01/01 09:42:01;;;;;;;3.95;1.70;;;;;;;;;;5078882;28;20032;-81
2023/01/01 09:44:52;;;;;;;3.22;1.70;;;;;;;;;;5081024;28;20029;-83
2023/01/01 09:47:24;;;;;;;4.25;1.90;;;;;;;;;;5081651;28;20025;-81
2023/01/01 09:49:57;;;;;;;6.82;1.90;;;;;;;;;;5063409;28;20024;-83
2023/01/01 09:52:24;;;;;;;3.83;2.22;;;;;;;;;;5080847;28;20024;-81
2023/01/01 09:54:58;;;;;;;4.35;1.63;;;;;;;;;;5080741;28;20131;-83
2023/01/01 09:57:28;;;;;;;10.02;2.00;;;;;;;;;;5081270;28;20385;-83
2023/01/01 09:59:55;;;;;;;5.78;1.50;;;;;;;;;;5062370;28;20496;-81
2023/01/01 10:02:55;;;;;;;3.20;1.50;;;;;;;;;;5080573;28;20032;-82
2023/01/01 10:05:32;;;;;;;7.55;2.20;;;;;;;;;;5080762;28;20024;-82
2023/01/01 10:08:27;;;;;;;5.53;1.60;;;;;;;;;;5081479;28;20113;-81
2023/01/01 10:10:58;;;;;;;;;;;;;;;;;;5082135;28;20037;-83
2023/01/01 10:13:33;;;;;;;5.95;1.73;;;;;;;;;;5081354;28;20003;-83
2023/01/01 10:16:03;;;;;;;3.17;1.60;;;;;;;;;;5062622;28;20031;-82
2023/01/01 10:18:32;;;;;;;2.85;1.48;;;;;;;;;;5081727;28;20021;-81
2023/01/01 10:21:30;;;;;;;5.55;1.65;;;;;;;;;;5080994;28;20086;-82
2023/01/01 10:24:12;;;;;;;4.60;1.70;;;;;;;;;;5075826;28;20402;-80
2023/01/01 10:26:38;;;;;;;5.40;1.80;;;;;;;;;;5081420;28;20050;-82
2023/01/01 10:29:41;;;;;;;5.63;1.80;;;;;;;;;;5062371;28;20058;-83
2023/01/01 10:32:24;;;;;;;4.32;1.80;;;;;;;;;;5019541;28;20026;-84
2023/01/01 10:34:49;;;;;;;5.55;1.85;;;;;;;;;;5075981;28;20097;-81
2023/01/01 10:37:15;;;;;;;3.50;1.50;;;;;;;;;;5080192;28;20048;-81
2023/01/01 10:39:44;;;;;;;9.32;1.90;;;;;;;;;;5081608;28;20536;-81
2023/01/01 10:42:12;;;;;;;3.55;1.40;;;;;;;;;;5082556;28;20470;-84
2023/01/01 10:44:38;;;;;;;5.20;1.48;;;;;;;;;;5062888;28;20115;-81
2023/01/01 10:47:23;;;;;;;8.10;1.80;;;;;;;;;;5080747;28;20508;-84
2023/01/01 10:49:58;;;;;;;5.05;1.88;;;;;;;;;;5080770;28;20032;-82
2023/01/01 10:52:32;;;;;;;5.85;1.70;;;;;;;;;;5062439;28;20040;-83
2023/01/01 10:54:58;;;;;;;11.80;1.75;;;;;;;;;;5079873;28;20040;-83
2023/01/01 10:57:24;;;;;;;7.75;2.17;;;;;;;;;;5079920;28;20028;-81
2023/01/01 10:59:49;;;;;;;6.17;1.77;;;;;;;;;;5080532;28;20017;-82
2023/01/01 11:02:27;;;;;;;10.55;2.78;;;;;;;;;;5061383;28;20492;-82
2023/01/01 11:05:12;;;;;;;5.28;2.10;;;;;;;;;;5080051;28;20118;-81
2023/01/01 11:07:40;;;;;;;5.75;1.60;;;;;;;;;;5079473;28;20080;-82
2023/01/01 11:10:06;;;;;;;13.98;3.35;;;;;;;;;;5079218;28;20024;-83
2023/01/01 11:12:36;;;;;;;7.43;2.47;;;;;;;;;;5061061;28;20035;-82
2023/01/01 11:15:04;;;;;;;6.40;2.05;;;;;;;;;;5079057;28;20455;-83
2023/01/01 11:17:32;;;;;;;5.75;1.70;;;;;;;;;;5079224;28;20056;-82
2023/01/01 11:19:58;;;;;;;5.47;2.40;;;;;;;;;;5078979;28;20457;-82
2023/01/01 11:22:42;;;;;;;6.00;1.83;;;;;;;;;;5044359;28;20059;-81
2023/01/01 11:25:17;;;;;;;3.60;1.23;;;;;;;;;;5061395;28;20020;-81
2023/01/01 11:27:48;;;;;;;10.82;1.90;;;;;;;;;;5079060;28;20028;-81
2023/01/01 11:30:31;;;;;;;6.72;2.45;;;;;;;;;;5079002;28;20052;-82
2023/01/01 11:32:59;;;;;;;;;;;;;;;;;;5079312;28;20056;-82
2023/01/01 11:35:28;;;;;;;4.30;1.80;;;;;;;;;;5079831;28;19909;-81
2023/01/01 11:37:55;;;;;;;8.05;2.00;;;;;;;;;;5061069;28;20016;-81
2023/01/01 11:40:45;;;;;;;5.85;1.60;;;;;;;;;;5078923;28;20027;-81
2023/01/01 11:43:17;;;;;;;6.53;1.88;;;;;;;;;;5049637;28;20029;-82
2023/01/01 11:45:43;;;;;;;8.00;1.95;;;;;;;;;;5078653;28;20451;-83
2023/01/01 11:48:24;;;;;;;3.83;1.65;;;;;;;;;;5078620;28;20150;-81
2023/01/01 11:50:53;;;;;;;10.38;1.67;;;;;;;;;;5079375;28;20024;-82
2023/01/01 11:53:33;;;;;;;4.88;1.70;;;;;;;;;;5078566;28;20107;-81
2023/01/01 11:56:08;;;;;;;6.90;1.75;;;;;;;;;;5078775;28;20032;-82
2023/01/01 11:58:54;;;;;;;4.43;1.65;;;;;;;;;;5079053;28;20078;-82
2023/01/01 12:02:00;;;;;;;9.27;1.85;;;;;;;;;;5079127;28;20029;-82
2023/01/01 12:04:32;;;;;;;5.47;1.60;;;;;;;;;;5015660;28;20026;-81
2023/01/01 12:07:10;;;;;;;9.98;1.70;;;;;;;;;;5069603;28;20040;-80
2023/01/01 12:09:43;;;;;;;4.82;1.70;;;;;;;;;;5076945;28;20052;-81
2023/01/01 12:12:33;;;;;;;9.82;1.92;;;;;;;;;;5076427;28;20052;-80
2023/01/01 12:15:06;;;;;;;9.23;2.10;;;;;;;;;;5076989;28;20044;-82
2023/01/01 12:17:42;;;;;;;8.07;1.85;;;;;;;;;;5076882;28;20052;-81
2023/01/01 12:20:24;;;;;;;9.10;1.98;;;;;;;;;;5078013;28;20024;-81
2023/01/01 12:22:50;;;;;;;4.25;1.73;;;;;;;;;;5078426;28;20029;-81
2023/01/01 12:25:18;;;;;;;6.63;1.92;;;;;;;;;;5078995;28;20032;-80
2023/01/01 12:27:55;;;;;;;7.80;1.83;;;;;;;;;;5078055;28;20111;-80
2023/01/01 12:30:24;;;;;;;10.82;1.55;;;;;;;;;;5077971;28;20024;-82
2023/01/01 12:33:02;;;;;;;9.68;2.15;;;;;;;;;;5059940;28;20043;-81
2023/01/01 12:35:47;;;;;;;5.75;1.80;;;;;;;;;;5077207;28;20032;-81
2023/01/01 12:38:24;;;;;;;8.05;1.98;;;;;;;;;;5077393;28;20013;-80
2023/01/01 12:41:16;;;;;;;9.18;1.88;;;;;;;;;;5078794;28;20031;-80
2023/01/01 12:43:53;;;;;;;7.20;1.65;;;;;;;;;;5059724;28;20029;-81
2023/01/01 12:46:41;;;;;;;6.43;1.90;;;;;;;;;;5057812;28;20033;-81
2023/01/01 12:49:28;;;;;;;4.05;1.70;;;;;;;;;;5058582;28;20493;-81
2023/01/01 12:52:27;;;;;;;7.63;2.70;;;;;;;;;;5076020;28;20037;-80
2023/01/01 12:55:17;;;;;;;7.00;2.00;;;;;;;;;;5056722;28;20051;-81
2023/01/01 12:58:03;;;;;;;9.35;3.08;;;;;;;;;;5057889;28;20393;-80
2023/01/01 13:00:30;;;;;;;17.15;6.13;;;;;;;;;;5075917;28;20080;-81
2023/01/01 13:03:20;;;;;;;13.05;3.03;;;;;;;;;;5076735;28;20031;-81
2023/01/01 13:05:50;;;;;;;9.70;2.55;;;;;;;;;;5077109;28;20036;-80
2023/01/01 13:08:16;;;;;;;5.60;2.13;;;;;;;;;;5076782;28;20067;-81
2023/01/01 13:10:44;;;;;;;5.38;2.15;;;;;;;;;;5059242;28;20032;-81
2023/01/01 13:13:11;;;;;;;9.70;2.13;;;;;;;;;;5059220;28;20068;-82
2023/01/01 13:15:36;;;;;;;7.25;2.10;;;;;;;;;;5058708;28;20028;-80
2023/01/01 13:18:06;;;;;;;7.57;2.17;;;;;;;;;;5076376;28;20390;-81
2023/01/01 13:20:34;;;;;;;8.10;1.88;;;;;;;;;;5077438;28;20123;-81
2023/01/01 13:22:59;;;;;;;8.07;2.05;;;;;;;;;;5077602;28;20024;-82
2023/01/01 13:25:25;;;;;;;8.13;2.20;;;;;;;;;;5077060;28;20044;-80
2023/01/01 13:30:42;;;;;;;7.38;2.10;;;;;;;;;;5077430;28;20454;-80
2023/01/01 13:33:30;;;;;;;4.68;1.60;;;;;;;;;;5059112;28;20032;-81
2023/01/01 13:36:10;;;;;;;6.63;1.92;;;;;;;;;;5077078;28;20054;-81
2023/01/01 13:38:49;;;;;;;4.90;2.35;;;;;;;;;;5077533;28;20492;-81
2023/01/01 13:41:44;;;;;;;11.50;1.90;;;;;;;;;;5059032;28;20032;-81
2023/01/01 13:44:15;;;;;;;5.47;1.90;;;;;;;;;;5077874;28;20048;-82
2023/01/01 13:46:40;;;;;;;6.43;2.03;;;;;;;;;;5077325;28;20052;-81
2023/01/01 13:49:37;;;;;;;6.50;2.03;;;;;;;;;;5079115;28;20044;-81
2023/01/01 13:52:12;;;;;;;12.25;2.20;;;;;;;;;;5063269;28;20020;-80
2023/01/01 13:55:16;;;;;;;8.07;2.38;;;;;;;;;;5080850;28;20047;-81
2023/01/01 13:58:17;;;;;;;9.70;3.95;;;;;;;;;;5063042;28;20363;-80
2023/01/01 14:01:13;;;;;;;13.80;2.90;;;;;;;;;;5080943;28;20060;-80
2023/01/01 14:03:51;;;;;;;7.32;2.22;;;;;;;;;;5062495;28;20400;-80
2023/01/01 14:06:35;;;;;;;13.02;2.17;;;;;;;;;;5062067;28;20028;-81
2023/01/01 14:09:05;;;;;;;7.40;2.28;;;;;;;;;;5080648;28;20033;-81
2023/01/01 14:11:30;;;;;;;8.93;2.35;;;;;;;;;;5080024;28;20033;-82
2023/01/01 14:13:55;;;;;;;9.15;2.10;;;;;;;;;;5080171;28;20027;-81
2023/01/01 14:16:21;;;;;;;16.67;4.03;;;;;;;;;;5079823;28;20023;-81
2023/01/01 14:18:54;;;;;;;10.05;2.40;;;;;;;;;;5062610;28;20249;-81
2023/01/01 14:21:21;;;;;;;9.60;2.60;;;;;;;;;;5080031;28;20035;-81
2023/01/01 14:23:59;;;;;;;7.53;2.22;;;;;;;;;;5080329;28;20035;-81
2023/01/01 14:26:27;;;;;;;9.75;2.42;;;;;;;;;;5062096;28;20111;-81
2023/01/01 14:28:57;;;;;;;8.52;3.92;;;;;;;;;;5078916;28;20024;-80
2023/01/01 14:31:27;;;;;;;18.88;6.22;;;;;;;;;;5061727;28;20166;-80
2023/01/01 14:33:52;;;;;;;11.90;3.80;;;;;;;;;;5079086;28;20035;-80
2023/01/01 14:36:20;;;;;;;9.50;2.83;;;;;;;;;;5080176;28;20020;-81
2023/01/01 14:38:47;;;;;;;5.35;2.40;;;;;;;;;;5079508;28;20032;-81
2023/01/01 14:41:18;;;;;;;9.80;2.42;;;;;;;;;;5080543;28;20090;-82
2023/01/01 14:43:46;;;;;;;13.20;2.20;;;;;;;;;;5080426;28;20048;-81
2023/01/01 14:46:17;;;;;;;16.15;2.67;;;;;;;;;;5080357;28;20424;-81
2023/01/01 14:48:45;;;;;;;7.10;2.42;;;;;;;;;;5080636;28;20031;-81
2023/01/01 14:51:19;;;;;;;10.13;2.22;;;;;;;;;;5079667;28;20020;-81
2023/01/01 14:53:46;;;;;;;6.55;3.10;;;;;;;;;;5061856;28;20025;-81
2023/01/01 14:56:24;;;;;;;12.30;3.00;;;;;;;;;;5061281;28;20025;-81
2023/01/01 14:58:50;;;;;;;8.20;3.17;;;;;;;;;;5061525;28;20046;-81
2023/01/01 15:01:22;;;;;;;8.35;3.60;;;;;;;;;;5078566;28;20051;-81
2023/01/01 15:03:55;;;;;;;7.75;2.67;;;;;;;;;;5079317;28;20052;-81
2023/01/01 15:06:22;;;;;;;14.57;2.45;;;;;;;;;;5079967;28;20032;-81
2023/01/01 15:08:49;;;;;;;10.32;2.45;;;;;;;;;;5060991;28;20074;-81
2023/01/01 15:11:15;;;;;;;8.57;2.35;;;;;;;;;;5061861;28;20032;-80
2023/01/01 15:13:51;;;;;;;11.75;4.72;;;;;;;;;;5078789;28;20147;-80